Time;durP1;ratioP1;P1;durP2;ratioP2;P2;SDS_P1;SDS_P2;PMS_P1;PMS_P2;Temp;Humidity;BMP_temperature;BMP_pressure;BME280_temperature;BME280_humidity;BME280_pressure;Samples;Min_cycle;Max_cycle;Signal;HPM_P1;HPM_P2
2021/08/02 00:01:53;;;;;;;28.75;11.43;;;16.60;99.90;;;;;;5001765;28;20037;-66
2021/08/02 00:04:23;;;;;;;30.02;10.57;;;14.60;99.90;;;;;;4995497;28;20201;-66
2021/08/02 00:06:49;;;;;;;24.92;10.70;;;14.70;99.90;;;;;;5012068;28;20030;-66
2021/08/02 00:09:24;;;;;;;27.00;11.68;;;14.70;99.90;;;;;;5002532;28;20375;-66
2021/08/02 00:11:54;;;;;;;23.60;10.93;;;14.80;99.90;;;;;;5005652;28;20398;-66
2021/08/02 00:14:21;;;;;;;;;;;14.80;99.90;;;;;;5004735;28;20030;-66
2021/08/02 00:16:47;;;;;;;25.95;11.90;;;14.80;99.90;;;;;;5003238;28;19922;-66
2021/08/02 00:19:12;;;;;;;23.10;10.25;;;14.70;99.90;;;;;;5005879;28;20052;-66
2021/08/02 00:21:40;;;;;;;26.10;10.98;;;14.70;99.90;;;;;;5005010;28;20399;-66
2021/08/02 00:24:06;;;;;;;23.13;10.38;;;14.60;99.90;;;;;;5007167;28;20072;-66
2021/08/02 00:26:32;;;;;;;23.35;10.52;;;14.50;99.90;;;;;;5000242;28;20038;-66
2021/08/02 00:28:59;;;;;;;26.25;10.45;;;14.50;99.90;;;;;;5009364;28;20032;-66
2021/08/02 00:31:26;;;;;;;25.08;11.35;;;14.50;99.90;;;;;;5002489;28;20050;-66
2021/08/02 00:33:51;;;;;;;26.20;10.73;;;14.60;99.90;;;;;;4994671;28;20096;-66
2021/08/02 00:36:41;;;;;;;26.55;11.15;;;14.60;99.90;;;;;;5004995;28;20026;-66
2021/08/02 00:39:41;;;;;;;27.60;11.93;;;14.40;99.90;;;;;;4996256;28;20155;-66
2021/08/02 00:42:28;;;;;;;26.75;10.98;;;14.60;99.90;;;;;;5003769;28;20495;-66
2021/08/02 00:45:20;;;;;;;26.77;11.43;;;14.70;99.90;;;;;;5002138;28;20289;-66
2021/08/02 00:48:08;;;;;;;26.88;10.77;;;14.80;99.90;;;;;;4996581;28;20034;-66
2021/08/02 00:50:57;;;;;;;27.02;11.45;;;14.80;99.90;;;;;;5004679;28;20064;-66
2021/08/02 00:53:26;;;;;;;27.23;11.73;;;14.80;99.90;;;;;;5006264;28;20108;-66
2021/08/02 00:55:55;;;;;;;23.83;10.52;;;14.80;99.90;;;;;;5007189;28;20021;-66
2021/08/02 00:58:24;;;;;;;26.67;11.15;;;14.70;99.90;;;;;;5006871;28;20546;-66
2021/08/02 01:00:51;;;;;;;30.23;12.00;;;14.80;99.90;;;;;;5013395;28;20038;-66
2021/08/02 01:03:17;;;;;;;24.52;10.73;;;14.70;99.90;;;;;;4988876;28;20494;-66
2021/08/02 01:05:47;;;;;;;29.63;11.82;;;14.80;99.90;;;;;;4991873;28;20207;-66
2021/08/02 01:08:19;;;;;;;30.58;12.82;;;14.70;99.90;;;;;;5015455;28;20026;-66
2021/08/02 01:10:46;;;;;;;27.70;12.02;;;14.60;99.90;;;;;;5007678;28;20026;-66
2021/08/02 01:13:16;;;;;;;24.73;11.38;;;14.50;99.90;;;;;;5008083;28;20034;-66
2021/08/02 01:15:46;;;;;;;29.20;10.65;;;14.40;99.90;;;;;;4995541;28;20029;-66
2021/08/02 01:18:12;;;;;;;28.25;11.00;;;14.20;99.90;;;;;;5007751;28;20088;-66
2021/08/02 01:20:45;;;;;;;24.60;11.52;;;14.10;99.90;;;;;;5006608;28;20034;-66
2021/08/02 01:23:13;;;;;;;27.50;11.43;;;14.00;99.90;;;;;;5010544;28;20034;-66
2021/08/02 01:25:38;;;;;;;27.80;11.15;;;13.90;99.90;;;;;;5012155;28;20026;-66
2021/08/02 01:28:24;;;;;;;28.95;12.50;;;14.10;99.90;;;;;;5011103;28;20034;-66
2021/08/02 01:30:55;;;;;;;25.38;11.48;;;14.20;99.90;;;;;;4965330;28;20034;-66
2021/08/02 01:33:30;;;;;;;30.45;12.75;;;14.10;99.90;;;;;;5006051;28;20033;-66
2021/08/02 01:36:04;;;;;;;26.20;11.45;;;14.10;99.90;;;;;;5008745;28;20026;-66
2021/08/02 01:38:32;;;;;;;31.75;11.35;;;13.80;99.90;;;;;;5006436;28;20449;-66
2021/08/02 01:40:58;;;;;;;26.30;11.38;;;13.70;99.90;;;;;;5006563;28;20033;-66
2021/08/02 01:43:24;;;;;;;29.85;12.57;;;13.70;99.90;;;;;;5005944;28;20039;-66
2021/08/02 01:46:06;;;;;;;32.85;13.13;;;13.90;99.90;;;;;;4989201;28;20359;-66
2021/08/02 01:48:39;;;;;;;31.77;11.68;;;13.70;99.90;;;;;;5002812;28;20493;-66
2021/08/02 01:51:25;;;;;;;30.60;12.38;;;13.70;99.90;;;;;;4996405;28;20029;-66
2021/08/02 01:54:13;;;;;;;29.35;11.68;;;13.50;99.90;;;;;;5008256;28;20033;-66
2021/08/02 01:56:54;;;;;;;32.00;13.13;;;13.60;99.90;;;;;;5000475;28;20053;-66
2021/08/02 01:59:24;;;;;;;31.02;12.55;;;13.80;99.90;;;;;;4997181;28;20479;-66
2021/08/02 02:02:08;;;;;;;30.33;12.18;;;13.80;99.90;;;;;;5004436;28;20061;-66
2021/08/02 02:04:52;;;;;;;33.78;12.05;;;14.10;99.90;;;;;;4985329;28;20045;-66
2021/08/02 02:07:20;;;;;;;32.20;12.55;;;14.10;99.90;;;;;;5007591;28;20118;-66
2021/08/02 02:09:48;;;;;;;28.92;12.68;;;13.90;99.90;;;;;;5015720;28;20025;-66
2021/08/02 02:12:15;;;;;;;31.80;12.63;;;14.10;99.90;;;;;;5010893;28;20361;-66
2021/08/02 02:14:42;;;;;;;31.05;13.18;;;14.00;99.90;;;;;;5005736;28;20042;-66
2021/08/02 02:17:10;;;;;;;31.45;12.18;;;13.90;99.90;;;;;;5008820;28;20062;-66
2021/08/02 02:19:37;;;;;;;31.58;12.20;;;14.10;99.90;;;;;;4988224;28;20033;-66
2021/08/02 02:22:04;;;;;;;29.77;11.90;;;14.00;99.90;;;;;;5008031;28;20029;-66
2021/08/02 02:24:31;;;;;;;26.08;10.65;;;14.10;99.90;;;;;;5005421;28;20061;-66
2021/08/02 02:26:58;;;;;;;31.60;11.85;;;14.20;99.90;;;;;;5006748;28;20469;-66
2021/08/02 02:29:24;;;;;;;26.73;10.77;;;14.10;99.90;;;;;;5006306;28;20469;-66
2021/08/02 02:31:50;;;;;;;30.17;11.07;;;14.00;99.90;;;;;;5009410;28;20409;-66
2021/08/02 02:34:16;;;;;;;25.88;10.73;;;13.90;99.90;;;;;;5010695;28;20108;-66
2021/08/02 02:36:44;;;;;;;28.80;11.02;;;13.80;99.90;;;;;;5011571;28;20030;-66
2021/08/02 02:39:10;;;;;;;29.65;11.73;;;14.10;99.90;;;;;;5020652;28;20160;-66
2021/08/02 02:41:36;;;;;;;27.83;11.75;;;14.20;99.90;;;;;;5011474;28;20121;-66
2021/08/02 02:44:04;;;;;;;28.30;11.07;;;14.20;99.90;;;;;;5010924;28;20041;-66
2021/08/02 02:46:31;;;;;;;28.40;11.73;;;14.20;99.90;;;;;;5020214;28;20029;-66
2021/08/02 02:48:58;;;;;;;31.10;12.00;;;14.20;99.90;;;;;;4994818;28;20064;-66
2021/08/02 02:51:26;;;;;;;25.73;11.25;;;14.00;99.90;;;;;;5009727;28;20111;-66
2021/08/02 02:53:53;;;;;;;26.23;11.30;;;13.80;99.90;;;;;;5009381;28;20080;-66
2021/08/02 02:56:19;;;;;;;28.70;11.63;;;13.80;99.90;;;;;;5009007;28;20072;-66
2021/08/02 02:58:45;;;;;;;25.77;11.52;;;;;;;;;;5008669;28;20132;-66
2021/08/02 03:01:15;;;;;;;26.33;11.27;;;14.20;99.90;;;;;;5009260;28;20674;-66
2021/08/02 03:03:48;;;;;;;26.25;11.20;;;14.20;99.90;;;;;;5008784;28;20489;-66
2021/08/02 03:06:15;;;;;;;25.83;10.90;;;14.20;99.90;;;;;;5009743;28;20018;-66
2021/08/02 03:08:43;;;;;;;23.23;9.32;;;14.20;99.90;;;;;;5008928;28;20030;-66
2021/08/02 03:11:12;;;;;;;21.50;9.52;;;14.20;99.90;;;;;;5009245;28;20401;-66
2021/08/02 03:13:38;;;;;;;22.20;9.37;;;14.20;99.90;;;;;;5008841;28;20465;-66
2021/08/02 03:16:06;;;;;;;19.73;9.52;;;14.20;99.90;;;;;;5015027;28;20052;-66
2021/08/02 03:18:32;;;;;;;21.55;9.07;;;14.20;99.90;;;;;;5012925;28;20065;-66
2021/08/02 03:20:57;;;;;;;22.38;8.77;;;14.20;99.90;;;;;;5009171;28;20057;-66
2021/08/02 03:23:28;;;;;;;20.80;8.48;;;14.10;99.90;;;;;;5016778;28;20540;-66
2021/08/02 03:26:03;;;;;;;24.10;8.80;;;14.10;99.90;;;;;;5018321;28;20480;-66
2021/08/02 03:28:58;;;;;;;25.52;8.85;;;14.20;99.90;;;;;;5007312;28;20025;-66
2021/08/02 03:31:34;;;;;;;24.35;9.60;;;14.20;99.90;;;;;;4992358;28;20092;-66
2021/08/02 03:34:01;;;;;;;20.25;9.15;;;14.10;99.90;;;;;;5009152;28;20030;-66
2021/08/02 03:36:29;;;;;;;21.85;9.05;;;14.10;99.90;;;;;;5008623;28;20034;-66
2021/08/02 03:38:55;;;;;;;21.75;8.88;;;13.90;99.90;;;;;;5015901;28;20037;-66
2021/08/02 03:41:21;;;;;;;19.08;7.93;;;14.00;99.90;;;;;;4994632;28;20038;-66
2021/08/02 03:43:48;;;;;;;20.73;8.50;;;13.90;99.90;;;;;;5008200;28;20085;-66
2021/08/02 03:46:15;;;;;;;16.88;7.70;;;14.00;99.90;;;;;;5008862;28;20614;-66
2021/08/02 03:48:41;;;;;;;19.27;7.28;;;13.90;99.90;;;;;;5006265;28;20033;-66
2021/08/02 03:51:06;;;;;;;17.73;7.03;;;13.90;99.90;;;;;;5008445;28;20033;-67
2021/08/02 03:53:48;;;;;;;18.67;6.90;;;13.80;99.90;;;;;;5013118;28;20083;-66
2021/08/02 03:56:15;;;;;;;18.08;7.90;;;13.80;99.90;;;;;;5007055;28;20046;-66
2021/08/02 03:58:41;;;;;;;19.80;8.13;;;13.70;99.90;;;;;;5006912;28;20121;-66
2021/08/02 04:01:07;;;;;;;18.42;7.50;;;13.70;99.90;;;;;;5008416;28;20117;-66
2021/08/02 04:03:33;;;;;;;22.33;8.23;;;13.60;99.90;;;;;;5007289;28;20041;-67
2021/08/02 04:05:59;;;;;;;18.50;7.95;;;13.70;99.90;;;;;;5008426;28;20080;-66
2021/08/02 04:08:26;;;;;;;17.92;7.47;;;13.60;99.90;;;;;;5005972;28;20033;-66
2021/08/02 04:10:52;;;;;;;20.50;8.82;;;13.70;99.90;;;;;;4986880;28;20018;-66
2021/08/02 04:13:19;;;;;;;17.80;8.38;;;13.80;99.90;;;;;;5007274;28;20029;-66
2021/08/02 04:15:45;;;;;;;20.63;9.25;;;13.80;99.90;;;;;;5006112;28;20029;-66
2021/08/02 04:18:11;;;;;;;21.77;8.48;;;13.90;99.90;;;;;;5006349;28;20042;-66
2021/08/02 04:20:36;;;;;;;21.08;8.02;;;13.80;99.90;;;;;;5006357;28;20049;-66
2021/08/02 04:23:02;;;;;;;20.55;8.60;;;13.90;99.90;;;;;;5007230;28;20065;-66
2021/08/02 04:25:27;;;;;;;20.10;8.52;;;13.90;99.90;;;;;;5006339;28;20041;-67
2021/08/02 04:27:55;;;;;;;19.52;7.88;;;13.70;99.90;;;;;;5003452;28;20036;-66
2021/08/02 04:30:22;;;;;;;24.65;8.27;;;13.70;99.90;;;;;;5015486;28;20378;-66
2021/08/02 04:32:48;;;;;;;20.63;8.10;;;13.70;99.90;;;;;;4988492;28;20264;-66
2021/08/02 04:35:14;;;;;;;16.83;7.13;;;13.80;99.90;;;;;;5006254;28;20334;-66
2021/08/02 04:37:40;;;;;;;19.52;7.22;;;13.90;99.90;;;;;;5005638;28;20501;-66
2021/08/02 04:40:06;;;;;;;17.92;7.32;;;14.00;99.90;;;;;;5007568;28;20060;-67
2021/08/02 04:42:37;;;;;;;15.57;6.63;;;14.00;99.90;;;;;;5006161;28;20049;-67
2021/08/02 04:45:07;;;;;;;14.48;6.20;;;14.20;99.90;;;;;;4989246;28;20029;-67
2021/08/02 04:47:33;;;;;;;16.70;7.03;;;14.20;99.90;;;;;;4989454;28;20061;-67
2021/08/02 04:49:59;;;;;;;20.17;7.07;;;14.00;99.90;;;;;;5006892;28;20473;-67
2021/08/02 04:52:24;;;;;;;16.23;7.43;;;14.10;99.90;;;;;;5006701;28;20033;-66
2021/08/02 04:54:50;;;;;;;15.77;7.03;;;14.20;99.90;;;;;;5005475;28;20396;-66
2021/08/02 04:57:16;;;;;;;13.52;6.65;;;14.30;99.90;;;;;;5007722;28;20057;-67
2021/08/02 04:59:42;;;;;;;15.68;6.93;;;14.30;99.90;;;;;;5005511;28;20037;-66
2021/08/02 05:02:09;;;;;;;16.92;6.93;;;14.30;99.90;;;;;;5006705;28;20509;-66
2021/08/02 05:04:36;;;;;;;14.00;6.72;;;14.20;99.90;;;;;;4987972;28;20039;-66
2021/08/02 05:07:01;;;;;;;18.60;7.15;;;14.30;99.90;;;;;;4995501;28;20033;-66
2021/08/02 05:09:27;;;;;;;16.48;7.15;;;14.30;99.90;;;;;;5007563;28;20020;-67
2021/08/02 05:11:53;;;;;;;16.92;6.93;;;14.30;99.90;;;;;;5007042;28;20026;-66
2021/08/02 05:14:19;;;;;;;13.48;5.57;;;14.30;99.90;;;;;;4988010;28;20528;-67
2021/08/02 05:16:45;;;;;;;15.60;6.15;;;14.20;99.90;;;;;;5005769;28;20080;-68
2021/08/02 05:19:11;;;;;;;13.10;5.53;;;14.20;99.90;;;;;;5006243;28;20045;-68
2021/08/02 05:21:37;;;;;;;14.35;5.90;;;14.30;99.90;;;;;;5005753;28;20033;-66
2021/08/02 05:24:03;;;;;;;14.07;5.90;;;14.20;99.90;;;;;;5006635;28;20022;-66
2021/08/02 05:26:29;;;;;;;13.68;5.63;;;14.20;99.90;;;;;;5006950;28;20089;-66
2021/08/02 05:28:55;;;;;;;19.25;6.25;;;14.30;99.90;;;;;;5006781;28;20413;-66
2021/08/02 05:31:20;;;;;;;16.33;6.35;;;14.30;99.90;;;;;;5006765;28;20053;-66
2021/08/02 05:33:46;;;;;;;18.05;6.40;;;14.30;99.90;;;;;;5006517;28;20024;-66
2021/08/02 05:36:12;;;;;;;17.02;6.60;;;14.40;99.90;;;;;;5007046;28;20030;-65
2021/08/02 05:38:39;;;;;;;20.42;6.97;;;14.50;99.90;;;;;;5005081;28;20061;-66
2021/08/02 05:41:05;;;;;;;13.82;6.60;;;14.40;99.90;;;;;;5004821;28;20374;-66
2021/08/02 05:43:30;;;;;;;14.60;7.28;;;14.40;99.90;;;;;;5006162;28;20076;-66
2021/08/02 05:45:56;;;;;;;14.20;6.50;;;14.50;99.90;;;;;;5006475;28;20018;-66
2021/08/02 05:48:22;;;;;;;18.85;7.78;;;14.60;99.90;;;;;;5007688;28;20062;-66
2021/08/02 05:50:48;;;;;;;15.45;6.57;;;14.50;99.90;;;;;;5005279;28;20032;-66
2021/08/02 05:53:16;;;;;;;17.60;7.10;;;14.50;99.90;;;;;;5007252;28;20017;-66
2021/08/02 05:55:42;;;;;;;14.13;6.38;;;14.60;99.90;;;;;;5005496;28;20079;-66
2021/08/02 05:58:08;;;;;;;16.35;6.32;;;14.50;99.90;;;;;;5005621;28;20755;-68
2021/08/02 06:00:33;;;;;;;16.73;5.82;;;14.60;99.90;;;;;;5004960;28;20026;-68
2021/08/02 06:02:59;;;;;;;13.77;5.70;;;14.60;99.90;;;;;;5006359;28;20034;-68
2021/08/02 06:05:24;;;;;;;14.50;5.75;;;14.60;99.90;;;;;;5006427;28;20026;-68
2021/08/02 06:07:50;;;;;;;12.90;5.32;;;14.70;99.90;;;;;;5009851;28;20045;-68
2021/08/02 06:10:15;;;;;;;16.60;5.60;;;14.60;99.90;;;;;;5010446;28;20374;-68
2021/08/02 06:12:41;;;;;;;18.55;5.78;;;14.70;99.90;;;;;;4992374;28;20049;-66
2021/08/02 06:15:08;;;;;;;11.93;5.32;;;14.40;99.90;;;;;;5009909;28;20026;-66
2021/08/02 06:17:34;;;;;;;14.60;5.75;;;14.50;99.90;;;;;;5009653;28;20058;-65
2021/08/02 06:19:59;;;;;;;15.20;5.53;;;14.60;99.90;;;;;;5010670;28;20390;-68
2021/08/02 06:22:25;;;;;;;13.73;4.90;;;14.70;99.90;;;;;;5008975;28;20049;-68
2021/08/02 06:24:51;;;;;;;13.23;5.28;;;14.80;99.90;;;;;;5012829;28;20030;-68
2021/08/02 06:27:16;;;;;;;14.05;4.82;;;14.80;99.90;;;;;;5010239;28;20211;-68
2021/08/02 06:29:42;;;;;;;14.98;5.57;;;15.00;99.90;;;;;;5010153;28;20107;-65
2021/08/02 06:32:08;;;;;;;14.20;5.45;;;15.00;99.90;;;;;;5008831;28;20030;-68
2021/08/02 06:34:34;;;;;;;10.85;4.93;;;14.90;99.90;;;;;;5009885;28;20030;-68
2021/08/02 06:37:00;;;;;;;12.85;5.40;;;14.90;99.90;;;;;;5008959;28;20109;-68
2021/08/02 06:39:25;;;;;;;11.90;5.50;;;14.80;99.90;;;;;;5008979;28;20037;-68
2021/08/02 06:41:51;;;;;;;16.15;6.05;;;15.00;99.90;;;;;;5009317;28;20046;-67
2021/08/02 06:44:18;;;;;;;14.50;5.03;;;15.00;99.90;;;;;;5009436;28;20424;-68
2021/08/02 06:46:44;;;;;;;11.68;5.45;;;15.20;99.90;;;;;;4997340;28;20389;-68
2021/08/02 06:49:09;;;;;;;13.68;4.78;;;15.30;99.90;;;;;;5005655;28;20030;-68
2021/08/02 06:51:35;;;;;;;13.70;5.05;;;15.40;99.90;;;;;;5004561;28;20840;-68
2021/08/02 06:54:01;;;;;;;16.15;5.50;;;15.40;99.90;;;;;;5000543;28;20533;-68
2021/08/02 06:56:26;;;;;;;14.95;4.88;;;15.50;99.90;;;;;;5004099;28;20038;-68
2021/08/02 06:58:52;;;;;;;11.50;5.20;;;15.60;99.90;;;;;;5004782;28;20033;-68
2021/08/02 07:01:18;;;;;;;14.18;4.65;;;15.80;99.90;;;;;;4999423;28;20022;-68
2021/08/02 07:03:43;;;;;;;13.02;4.95;;;15.70;99.90;;;;;;5000000;28;20095;-68
2021/08/02 07:06:09;;;;;;;12.30;4.85;;;15.70;99.90;;;;;;5001218;28;20038;-67
2021/08/02 07:08:38;;;;;;;9.88;3.65;;;15.90;99.90;;;;;;5006588;28;20034;-68
2021/08/02 07:11:06;;;;;;;12.55;4.90;;;16.20;99.90;;;;;;5009303;28;20026;-68
2021/08/02 07:13:32;;;;;;;9.88;3.72;;;16.40;99.90;;;;;;5009792;28;20040;-68
2021/08/02 07:16:00;;;;;;;10.10;4.28;;;16.40;99.90;;;;;;5011442;28;20021;-68
2021/08/02 07:18:26;;;;;;;9.32;3.88;;;16.40;99.90;;;;;;5009221;28;20379;-68
2021/08/02 07:20:52;;;;;;;10.82;3.70;;;16.40;99.90;;;;;;5009241;28;20034;-68
2021/08/02 07:23:17;;;;;;;8.85;3.40;;;16.40;99.90;;;;;;5009696;28;20124;-68
2021/08/02 07:25:43;;;;;;;8.65;3.08;;;16.30;99.90;;;;;;5009010;28;20512;-68
2021/08/02 07:28:09;;;;;;;9.93;3.53;;;16.10;99.90;;;;;;5009114;28;20037;-68
2021/08/02 07:30:35;;;;;;;9.32;3.42;;;16.10;99.90;;;;;;5003458;28;20046;-68
2021/08/02 07:33:01;;;;;;;10.85;3.28;;;16.10;99.90;;;;;;4989013;28;20104;-68
2021/08/02 07:35:27;;;;;;;9.85;3.50;;;16.20;99.90;;;;;;5007410;28;20478;-68
2021/08/02 07:37:53;;;;;;;8.00;3.20;;;16.30;99.90;;;;;;4988300;28;20037;-68
2021/08/02 07:40:19;;;;;;;8.38;3.50;;;17.00;99.90;;;;;;5007086;28;20010;-68
2021/08/02 07:42:44;;;;;;;9.55;3.30;;;17.00;99.90;;;;;;5007377;28;20041;-68
2021/08/02 07:45:11;;;;;;;9.07;3.17;;;17.30;99.90;;;;;;5008003;28;20037;-68
2021/08/02 07:47:36;;;;;;;8.48;3.10;;;17.20;99.90;;;;;;5021124;28;20052;-68
2021/08/02 07:50:03;;;;;;;11.70;2.88;;;17.10;99.90;;;;;;5014758;28;20365;-68
2021/08/02 07:52:31;;;;;;;11.02;4.00;;;17.00;99.90;;;;;;5008080;28;20807;-68
2021/08/02 07:54:57;;;;;;;7.78;3.38;;;16.70;99.90;;;;;;5007710;28;20018;-68
2021/08/02 07:57:23;;;;;;;8.60;3.35;;;16.60;99.90;;;;;;5009033;28;20030;-67
2021/08/02 07:59:48;;;;;;;9.88;3.40;;;16.60;99.90;;;;;;4989959;28;20125;-68
2021/08/02 08:02:14;;;;;;;10.80;2.97;;;16.70;99.90;;;;;;5005096;28;20037;-68
2021/08/02 08:04:40;;;;;;;8.45;2.85;;;16.90;99.90;;;;;;5004142;28;20053;-68
2021/08/02 08:07:05;;;;;;;8.38;2.80;;;16.80;99.90;;;;;;5005334;28;20102;-68
2021/08/02 08:09:31;;;;;;;6.97;2.30;;;17.00;99.90;;;;;;5005728;28;20026;-67
2021/08/02 08:11:56;;;;;;;6.90;2.30;;;16.90;99.90;;;;;;5005344;28;20030;-67
2021/08/02 08:14:22;;;;;;;6.72;2.10;;;16.80;99.90;;;;;;4988490;28;20429;-68
2021/08/02 08:16:47;;;;;;;8.57;2.63;;;16.80;99.90;;;;;;4987442;28;20069;-65
2021/08/02 08:19:13;;;;;;;8.80;2.60;;;16.80;99.90;;;;;;5004991;28;20446;-65
2021/08/02 08:21:39;;;;;;;8.63;2.30;;;16.80;99.90;;;;;;5004727;28;20026;-66
2021/08/02 08:24:06;;;;;;;7.10;2.22;;;16.70;99.90;;;;;;5005522;28;20053;-65
2021/08/02 08:26:34;;;;;;;9.15;2.13;;;16.60;99.90;;;;;;5004115;28;20033;-65
2021/08/02 08:29:00;;;;;;;6.35;1.90;;;16.80;99.90;;;;;;5002199;28;20039;-65
2021/08/02 08:31:26;;;;;;;7.57;2.05;;;16.90;99.90;;;;;;5003487;28;20064;-65
2021/08/02 08:33:51;;;;;;;7.18;2.30;;;16.80;99.90;;;;;;5003343;28;20022;-67
2021/08/02 08:36:17;;;;;;;7.07;2.30;;;16.70;99.90;;;;;;5004116;28;20097;-66
2021/08/02 08:38:44;;;;;;;7.47;2.30;;;16.80;99.90;;;;;;5005778;28;20025;-65
2021/08/02 08:41:13;;;;;;;7.50;2.33;;;16.90;99.90;;;;;;5004918;28;20489;-65
2021/08/02 08:43:42;;;;;;;9.90;2.35;;;17.20;99.90;;;;;;5004657;28;20021;-66
2021/08/02 08:46:08;;;;;;;8.38;2.05;;;17.10;99.90;;;;;;5005099;28;20517;-66
2021/08/02 08:48:33;;;;;;;4.88;1.75;;;17.00;99.90;;;;;;5005123;28;20028;-65
2021/08/02 08:51:02;;;;;;;10.00;2.70;;;16.90;99.90;;;;;;5004917;28;20397;-65
2021/08/02 08:53:28;;;;;;;6.53;2.00;;;17.70;99.90;;;;;;5004540;28;20037;-65
2021/08/02 08:55:54;;;;;;;11.93;2.80;;;16.60;99.90;;;;;;5005401;28;20022;-66
2021/08/02 08:58:20;;;;;;;7.68;3.03;;;16.50;99.90;;;;;;5006697;28;20024;-65
2021/08/02 09:00:46;;;;;;;8.25;2.05;;;16.60;99.90;;;;;;4985829;28;20424;-66
2021/08/02 09:03:14;;;;;;;13.32;2.42;;;16.70;99.90;;;;;;5005183;28;20065;-65
2021/08/02 09:05:40;;;;;;;5.38;1.70;;;16.90;99.90;;;;;;5004392;28;20034;-66
2021/08/02 09:08:07;;;;;;;8.45;2.10;;;17.20;99.90;;;;;;4993602;28;20093;-65
2021/08/02 09:10:35;;;;;;;8.10;2.42;;;17.40;99.90;;;;;;5005036;28;20097;-65
2021/08/02 09:13:03;;;;;;;8.25;2.17;;;17.90;99.90;;;;;;5004438;28;20037;-65
2021/08/02 09:15:37;;;;;;;8.13;2.00;;;18.30;99.90;;;;;;5001881;28;20039;-66
2021/08/02 09:18:09;;;;;;;4.32;1.30;;;18.30;99.90;;;;;;5002920;28;20045;-66
2021/08/02 09:20:36;;;;;;;5.13;1.45;;;18.30;99.90;;;;;;5003773;28;20323;-65
2021/08/02 09:23:12;;;;;;;5.20;1.80;;;18.20;99.90;;;;;;5003339;28;20025;-65
2021/08/02 09:25:53;;;;;;;6.05;1.60;;;18.50;99.90;;;;;;5004664;28;20053;-65
2021/08/02 09:28:21;;;;;;;6.00;2.15;;;18.60;99.90;;;;;;5004337;28;20071;-66
2021/08/02 09:31:00;;;;;;;8.60;2.33;;;18.40;99.90;;;;;;5003732;28;20080;-66
2021/08/02 09:33:31;;;;;;;8.77;1.63;;;18.50;99.90;;;;;;5005669;28;20022;-66
2021/08/02 09:36:01;;;;;;;6.03;1.70;;;18.80;99.90;;;;;;5003990;28;20022;-66
2021/08/02 09:38:26;;;;;;;5.35;1.75;;;18.70;99.90;;;;;;5002071;28;20076;-65
2021/08/02 09:40:56;;;;;;;5.07;1.63;;;18.90;99.90;;;;;;4991339;28;20038;-66
2021/08/02 09:43:24;;;;;;;9.65;2.40;;;18.90;99.90;;;;;;5008917;28;20051;-65
2021/08/02 09:45:55;;;;;;;8.32;2.28;;;18.90;99.90;;;;;;5007793;28;20030;-66
2021/08/02 09:48:36;;;;;;;7.53;2.13;;;19.90;99.90;;;;;;5009262;28;20076;-66
2021/08/02 09:51:09;;;;;;;6.20;2.15;;;20.30;99.90;;;;;;5004381;28;20033;-66
2021/08/02 09:53:45;;;;;;;6.85;2.35;;;19.80;99.90;;;;;;5009632;28;20327;-66
2021/08/02 09:56:12;;;;;;;8.32;2.25;;;19.80;99.90;;;;;;5007583;28;20017;-66
2021/08/02 09:58:42;;;;;;;9.95;3.40;;;20.10;99.90;;;;;;5007023;28;20535;-66
2021/08/02 10:01:11;;;;;;;8.60;3.08;;;19.90;99.90;;;;;;5008319;28;20022;-66
2021/08/02 10:03:38;;;;;;;11.77;2.42;;;19.70;99.90;;;;;;5008891;28;20112;-66
2021/08/02 10:06:04;;;;;;;9.32;2.58;;;19.80;99.90;;;;;;5008101;28;20025;-66
2021/08/02 10:08:30;;;;;;;7.53;2.85;;;19.80;99.90;;;;;;5008562;28;20040;-66
2021/08/02 10:10:56;;;;;;;8.20;3.00;;;19.90;99.90;;;;;;5007287;28;20064;-66
2021/08/02 10:13:28;;;;;;;7.72;2.78;;;20.70;99.90;;;;;;5008167;28;20026;-66
2021/08/02 10:15:57;;;;;;;8.38;2.80;;;20.80;99.90;;;;;;5007483;28;20038;-66
2021/08/02 10:18:25;;;;;;;8.40;2.53;;;21.30;99.90;;;;;;5006828;28;20041;-66
2021/08/02 10:21:08;;;;;;;7.03;2.40;;;21.30;99.90;;;;;;5007538;28;20054;-66
2021/08/02 10:23:36;;;;;;;7.80;2.33;;;21.30;99.90;;;;;;5008384;28;20034;-66
2021/08/02 10:26:02;;;;;;;6.60;2.20;;;21.60;99.90;;;;;;5009344;28;20048;-66
2021/08/02 10:28:28;;;;;;;6.30;2.00;;;22.50;99.90;;;;;;5010696;28;20026;-66
2021/08/02 10:31:05;;;;;;;6.28;2.22;;;22.80;99.90;;;;;;5010255;28;20022;-66
2021/08/02 10:33:36;;;;;;;7.03;2.10;;;22.80;99.90;;;;;;5010315;28;20014;-66
2021/08/02 10:36:15;;;;;;;6.35;2.30;;;22.70;99.90;;;;;;5002557;28;20091;-66
2021/08/02 10:38:46;;;;;;;6.10;2.70;;;22.10;99.90;;;;;;5010377;28;20029;-66
2021/08/02 10:41:26;;;;;;;6.28;1.92;;;22.50;99.90;;;;;;5011020;28;20026;-66
2021/08/02 10:43:53;;;;;;;6.40;2.15;;;23.20;99.90;;;;;;4996090;28;20385;-68
2021/08/02 10:46:23;;;;;;;7.75;2.25;;;23.60;99.90;;;;;;5009435;28;20022;-68
2021/08/02 10:48:53;;;;;;;7.15;2.10;;;23.50;99.90;;;;;;5009880;28;20022;-69
2021/08/02 10:51:20;;;;;;;6.65;2.00;;;22.80;99.90;;;;;;5007620;28;20029;-68
2021/08/02 10:54:00;;;;;;;6.10;2.08;;;21.90;99.90;;;;;;5007238;28;20117;-68
2021/08/02 10:56:30;;;;;;;5.77;1.90;;;21.30;99.90;;;;;;4979000;28;20524;-68
2021/08/02 10:58:57;;;;;;;8.18;2.13;;;21.00;99.90;;;;;;5009354;28;20022;-68
2021/08/02 11:01:26;;;;;;;4.18;1.52;;;21.10;99.90;;;;;;5007316;28;20113;-68
2021/08/02 11:03:53;;;;;;;9.40;2.23;;;21.40;99.90;;;;;;4990402;28;20335;-68
2021/08/02 11:06:19;;;;;;;5.07;1.80;;;21.30;99.90;;;;;;5009303;28;20544;-68
2021/08/02 11:08:46;;;;;;;4.47;1.92;;;21.40;99.90;;;;;;5010807;28;20030;-69
2021/08/02 11:11:38;;;;;;;7.43;2.00;;;21.10;99.90;;;;;;5013690;28;20058;-69
2021/08/02 11:14:14;;;;;;;3.67;1.23;;;21.40;98.40;;;;;;5006611;28;20038;-68
2021/08/02 11:16:42;;;;;;;6.70;1.55;;;21.30;98.70;;;;;;4990792;28;20045;-68
2021/08/02 11:19:16;;;;;;;5.03;1.52;;;21.30;99.90;;;;;;5009294;28;20429;-68
2021/08/02 11:21:42;;;;;;;5.40;1.42;;;21.70;99.90;;;;;;5006626;28;20038;-68
2021/08/02 11:24:09;;;;;;;4.85;1.60;;;21.80;98.10;;;;;;5007155;28;20347;-68
2021/08/02 11:27:06;;;;;;;5.03;1.60;;;22.10;99.90;;;;;;4989409;28;20065;-68
2021/08/02 11:29:33;;;;;;;4.85;1.70;;;22.60;98.30;;;;;;4977710;28;20037;-68
2021/08/02 11:32:06;;;;;;;3.78;1.40;;;23.20;98.20;;;;;;5007263;28;20033;-68
2021/08/02 11:34:33;;;;;;;3.85;1.50;;;23.10;96.70;;;;;;5007238;28;20052;-67
2021/08/02 11:37:02;;;;;;;5.57;1.70;;;22.80;96.30;;;;;;4991971;28;20880;-68
2021/08/02 11:39:31;;;;;;;6.32;1.58;;;23.40;97.00;;;;;;5004579;28;20493;-68
2021/08/02 11:42:02;;;;;;;4.55;1.60;;;23.80;94.90;;;;;;5002465;28;20231;-68
2021/08/02 11:44:28;;;;;;;4.78;1.70;;;23.50;95.20;;;;;;5006099;28;20723;-68
2021/08/02 11:46:55;;;;;;;5.15;1.70;;;23.60;95.90;;;;;;5006416;28;20026;-68
2021/08/02 11:49:20;;;;;;;6.05;1.80;;;23.00;95.50;;;;;;5007622;28;20032;-69
2021/08/02 11:51:47;;;;;;;7.07;2.60;;;23.00;96.00;;;;;;5006586;28;20042;-68
2021/08/02 11:54:20;;;;;;;6.90;2.00;;;23.00;96.30;;;;;;5007122;28;20544;-68
2021/08/02 11:56:47;;;;;;;7.10;2.13;;;22.90;96.70;;;;;;5006415;28;20030;-68
2021/08/02 11:59:24;;;;;;;6.43;2.20;;;22.40;97.10;;;;;;5007910;28;20513;-68
2021/08/02 12:01:52;;;;;;;5.93;2.10;;;22.50;96.40;;;;;;5005206;28;20038;-68
2021/08/02 12:04:19;;;;;;;5.18;1.90;;;23.10;97.30;;;;;;5006299;28;20028;-68
2021/08/02 12:06:59;;;;;;;5.85;2.20;;;23.40;96.00;;;;;;5004956;28;20022;-68
2021/08/02 12:09:33;;;;;;;5.60;2.00;;;23.50;95.30;;;;;;5007780;28;20018;-68
2021/08/02 12:12:01;;;;;;;6.20;2.42;;;23.90;94.90;;;;;;5007295;28;20026;-68
2021/08/02 12:14:30;;;;;;;6.70;2.50;;;23.50;95.60;;;;;;5009735;28;20033;-68
2021/08/02 12:17:08;;;;;;;9.38;2.97;;;23.30;96.70;;;;;;5000334;28;20042;-68
2021/08/02 12:19:50;;;;;;;6.15;2.45;;;23.00;96.70;;;;;;5006663;28;20029;-68
2021/08/02 12:22:17;;;;;;;8.50;2.50;;;22.80;96.80;;;;;;5005916;28;20033;-68
2021/08/02 12:24:55;;;;;;;9.98;2.90;;;22.20;98.60;;;;;;5004143;28;20040;-68
2021/08/02 12:27:23;;;;;;;6.38;2.95;;;22.30;99.00;;;;;;5006610;28;20518;-68
2021/08/02 12:29:56;;;;;;;7.45;3.08;;;22.20;98.50;;;;;;5004102;28;20030;-68
2021/08/02 12:32:34;;;;;;;7.18;2.75;;;22.70;97.50;;;;;;5005014;28;20041;-68
2021/08/02 12:35:00;;;;;;;6.78;3.08;;;22.90;97.60;;;;;;5004633;28;20030;-67
2021/08/02 12:37:26;;;;;;;7.28;3.28;;;23.00;98.10;;;;;;5005160;28;20034;-68
2021/08/02 12:39:54;;;;;;;10.45;4.10;;;22.80;97.90;;;;;;5005134;28;20049;-68
2021/08/02 12:42:24;;;;;;;10.55;3.70;;;22.60;99.00;;;;;;5005597;28;20025;-68
2021/08/02 12:44:49;;;;;;;;;;;23.10;98.10;;;;;;4996307;28;20041;-68
2021/08/02 12:47:15;;;;;;;6.32;2.95;;;23.60;96.90;;;;;;5005535;28;19913;-68